createdAt,value
2019-02-25T00:00:36.909Z,3.40
2019-02-25T00:01:36.880Z,3.50
2019-02-25T00:02:36.882Z,3.60
2019-02-25T00:03:36.900Z,3.20
2019-02-25T00:04:36.879Z,2.80
2019-02-25T00:05:36.867Z,3.40
2019-02-25T00:06:36.884Z,2.80
2019-02-25T00:07:36.859Z,3.30
2019-02-25T00:08:36.852Z,3.40
2019-02-25T00:09:37.065Z,2.90
2019-02-25T00:10:36.846Z,3.00
2019-02-25T00:11:36.861Z,2.60
2019-02-25T00:12:36.855Z,2.50
2019-02-25T00:13:36.838Z,3.20
2019-02-25T00:14:36.835Z,2.90
2019-02-25T00:15:36.810Z,3.00
2019-02-25T00:16:36.821Z,2.80
2019-02-25T00:17:36.816Z,3.30
2019-02-25T00:18:36.802Z,3.10
2019-02-25T00:19:36.818Z,2.50
2019-02-25T00:20:36.822Z,2.70
2019-02-25T00:21:36.843Z,3.00
2019-02-25T00:22:36.797Z,2.40
2019-02-25T00:23:36.782Z,2.30
2019-02-25T00:24:36.793Z,2.30
2019-02-25T00:25:36.837Z,2.30
2019-02-25T00:26:36.823Z,2.10
2019-02-25T00:27:36.797Z,2.30
2019-02-25T00:28:36.756Z,2.10
2019-02-25T00:29:36.781Z,2.10
2019-02-25T00:30:36.776Z,1.90
2019-02-25T00:31:36.766Z,1.80
2019-02-25T00:32:36.777Z,2.00
2019-02-25T00:33:36.734Z,1.80
2019-02-25T00:34:36.754Z,1.90
2019-02-25T00:35:36.749Z,2.10
2019-02-25T00:36:36.746Z,2.10
2019-02-25T00:37:36.733Z,1.90
2019-02-25T00:38:36.738Z,1.70
2019-02-25T00:39:36.710Z,1.70
2019-02-25T00:40:36.755Z,2.00
2019-02-25T00:41:36.724Z,1.80
2019-02-25T00:42:36.712Z,1.70
2019-02-25T00:43:36.704Z,1.80
2019-02-25T00:44:36.710Z,1.70
2019-02-25T00:45:36.705Z,2.10
2019-02-25T00:46:36.692Z,1.80
2019-02-25T00:47:36.733Z,1.70
2019-02-25T00:48:36.724Z,2.20
2019-02-25T00:49:36.688Z,1.80
2019-02-25T00:50:36.687Z,2.10
2019-02-25T00:51:36.656Z,1.80
2019-02-25T00:52:36.646Z,2.00
2019-02-25T00:53:36.661Z,1.80
2019-02-25T00:54:36.639Z,1.80
2019-02-25T00:55:36.660Z,1.80
2019-02-25T00:56:36.644Z,2.00
2019-02-25T00:57:36.641Z,2.10
2019-02-25T00:58:36.614Z,1.90
2019-02-25T00:59:36.625Z,2.00
2019-02-25T01:00:36.609Z,2.00
2019-02-25T01:01:36.626Z,2.00
2019-02-25T01:02:36.604Z,2.00
2019-02-25T01:03:36.651Z,1.70
2019-02-25T01:04:36.612Z,1.90
2019-02-25T01:05:36.586Z,1.80
2019-02-25T01:06:36.586Z,2.00
2019-02-25T01:07:36.585Z,1.90
2019-02-25T01:08:36.568Z,2.20
2019-02-25T01:09:36.574Z,2.20
2019-02-25T01:10:36.567Z,2.20
2019-02-25T01:11:36.548Z,2.10
2019-02-25T01:12:36.558Z,2.20
2019-02-25T01:13:36.539Z,1.90
2019-02-25T01:14:36.546Z,1.80
2019-02-25T01:15:36.733Z,2.40
2019-02-25T01:16:36.561Z,2.40
2019-02-25T01:17:36.540Z,2.30
2019-02-25T01:18:36.534Z,2.40
2019-02-25T01:19:36.521Z,1.90
2019-02-25T01:20:36.516Z,2.00
2019-02-25T01:21:36.511Z,2.10
2019-02-25T01:22:36.518Z,2.10
2019-02-25T01:23:36.492Z,2.30
2019-02-25T01:24:36.483Z,2.10
2019-02-25T01:25:36.488Z,1.90
2019-02-25T01:26:36.493Z,2.10
2019-02-25T01:27:36.473Z,2.00
2019-02-25T01:28:36.474Z,1.70
2019-02-25T01:29:36.519Z,1.80
2019-02-25T01:30:36.466Z,1.90
2019-02-25T01:31:36.474Z,1.70
2019-02-25T01:32:36.465Z,2.00
2019-02-25T01:33:36.443Z,2.00
2019-02-25T01:34:36.437Z,1.80
2019-02-25T01:35:36.451Z,1.60
2019-02-25T01:36:36.474Z,1.90
2019-02-25T01:37:36.432Z,1.90
2019-02-25T01:38:36.419Z,1.70
2019-02-25T01:39:36.408Z,1.60
2019-02-25T01:40:36.401Z,1.60
2019-02-25T01:41:36.416Z,1.40
2019-02-25T01:42:36.403Z,1.70
2019-02-25T01:43:36.400Z,1.60
2019-02-25T01:44:36.394Z,1.70
2019-02-25T01:45:36.387Z,1.50
2019-02-25T01:46:36.365Z,1.40
2019-02-25T01:47:36.386Z,1.50
2019-02-25T01:48:36.376Z,1.60
2019-02-25T01:49:36.410Z,1.70
2019-02-25T01:50:36.348Z,1.50
2019-02-25T01:51:36.351Z,1.40
2019-02-25T01:52:36.341Z,1.50
2019-02-25T01:53:36.363Z,1.50
2019-02-25T01:54:36.359Z,1.80
2019-02-25T01:55:36.322Z,1.50
2019-02-25T01:56:36.326Z,1.60
2019-02-25T01:57:36.353Z,1.70
2019-02-25T01:58:36.309Z,1.40
2019-02-25T01:59:36.292Z,1.60
2019-02-25T02:00:36.311Z,1.50
2019-02-25T02:01:36.349Z,1.40
2019-02-25T02:02:36.275Z,1.60
2019-02-25T02:03:36.278Z,1.50
2019-02-25T02:04:36.283Z,1.40
2019-02-25T02:05:36.280Z,1.50
2019-02-25T02:06:36.273Z,1.40
2019-02-25T02:07:36.257Z,1.40
2019-02-25T02:08:36.267Z,1.80
2019-02-25T02:09:36.246Z,1.40
2019-02-25T02:10:36.247Z,1.50
2019-02-25T02:11:36.289Z,1.40
2019-02-25T02:12:36.242Z,1.40
2019-02-25T02:13:36.214Z,1.20
2019-02-25T02:14:36.243Z,1.30
2019-02-25T02:15:36.210Z,1.60
2019-02-25T02:16:36.219Z,1.50
2019-02-25T02:17:36.188Z,1.40
2019-02-25T02:18:36.197Z,1.50
2019-02-25T02:19:36.180Z,1.30
2019-02-25T02:20:36.185Z,1.40
2019-02-25T02:21:36.182Z,1.80
2019-02-25T02:22:36.159Z,1.60
2019-02-25T02:23:36.172Z,1.50
2019-02-25T02:24:36.175Z,1.70
2019-02-25T02:25:36.202Z,1.60
2019-02-25T02:26:36.157Z,1.60
2019-02-25T02:27:36.154Z,1.50
2019-02-25T02:28:36.159Z,1.50
2019-02-25T02:29:36.134Z,1.60
2019-02-25T02:30:36.122Z,1.60
2019-02-25T02:31:36.126Z,1.60
2019-02-25T02:32:39.145Z,1.50
2019-02-25T02:33:36.117Z,1.50
2019-02-25T02:34:36.116Z,1.40
2019-02-25T02:35:36.116Z,1.60
2019-02-25T02:36:36.115Z,1.40
2019-02-25T02:37:36.072Z,1.40
2019-02-25T02:38:36.105Z,1.40
2019-02-25T02:39:36.072Z,1.50
2019-02-25T02:40:36.076Z,1.60
2019-02-25T02:41:36.063Z,1.50
2019-02-25T02:42:36.078Z,1.60
2019-02-25T02:43:36.072Z,1.50
2019-02-25T02:44:36.041Z,1.60
2019-02-25T02:45:36.051Z,1.60
2019-02-25T02:46:36.054Z,1.30
2019-02-25T02:47:36.020Z,1.40
2019-02-25T02:48:36.039Z,1.60
2019-02-25T02:49:36.032Z,1.50
2019-02-25T02:50:36.015Z,1.40
2019-02-25T02:51:36.001Z,1.70
2019-02-25T02:52:36.049Z,1.40
2019-02-25T02:53:36.009Z,1.50
2019-02-25T02:54:35.990Z,1.60
2019-02-25T02:55:35.998Z,1.50
2019-02-25T02:56:35.991Z,1.50
2019-02-25T02:57:35.986Z,1.50
2019-02-25T02:58:35.993Z,1.40
2019-02-25T02:59:35.968Z,1.50
2019-02-25T03:00:35.957Z,1.50
2019-02-25T03:01:35.961Z,1.60
2019-02-25T03:02:35.986Z,1.50
2019-02-25T03:03:35.958Z,1.50
2019-02-25T03:04:35.941Z,1.60
2019-02-25T03:05:35.925Z,1.50
2019-02-25T03:06:35.942Z,1.50
2019-02-25T03:07:35.919Z,1.60
2019-02-25T03:08:35.929Z,1.50
2019-02-25T03:09:35.910Z,1.50
2019-02-25T03:10:35.917Z,1.30
2019-02-25T03:11:35.917Z,1.50
2019-02-25T03:12:35.895Z,1.50
2019-02-25T03:13:35.876Z,1.40
2019-02-25T03:14:35.894Z,1.90
2019-02-25T03:15:35.883Z,1.40
2019-02-25T03:16:35.885Z,1.90
2019-02-25T03:17:35.873Z,1.30
2019-02-25T03:18:35.855Z,1.60
2019-02-25T03:19:35.843Z,1.50
2019-02-25T03:20:35.830Z,1.50
2019-02-25T03:21:35.848Z,1.40
2019-02-25T03:22:35.829Z,1.60
2019-02-25T03:23:35.854Z,1.40
2019-02-25T03:24:35.831Z,1.70
2019-02-25T03:25:35.826Z,1.60
2019-02-25T03:26:35.825Z,1.60
2019-02-25T03:27:35.817Z,1.80
2019-02-25T03:28:36.009Z,1.70
2019-02-25T03:29:35.802Z,1.90
2019-02-25T03:30:35.784Z,1.60
2019-02-25T03:31:35.782Z,2.00
2019-02-25T03:32:35.812Z,1.80
2019-02-25T03:33:35.764Z,1.70
2019-02-25T03:34:35.780Z,1.70
2019-02-25T03:35:35.761Z,2.10
2019-02-25T03:36:35.831Z,1.80
2019-02-25T03:37:35.747Z,1.80
2019-02-25T03:38:35.751Z,1.80
2019-02-25T03:39:35.732Z,2.00
2019-02-25T03:40:35.730Z,1.70
2019-02-25T03:41:35.770Z,1.50
2019-02-25T03:42:35.758Z,1.90
2019-02-25T03:43:35.720Z,1.80
2019-02-25T03:44:35.696Z,2.10
2019-02-25T03:45:35.704Z,2.10
2019-02-25T03:46:35.691Z,1.90
2019-02-25T03:47:35.680Z,2.00
2019-02-25T03:48:35.681Z,1.80
2019-02-25T03:49:35.680Z,2.00
2019-02-25T03:50:35.685Z,1.90
2019-02-25T03:51:35.671Z,2.00
2019-02-25T03:52:35.659Z,1.90
2019-02-25T03:53:35.652Z,1.70
2019-02-25T03:54:35.647Z,1.90
2019-02-25T03:55:35.694Z,1.70
2019-02-25T03:56:35.656Z,2.10
2019-02-25T03:57:36.183Z,1.90
2019-02-25T03:58:35.625Z,1.90
2019-02-25T03:59:35.629Z,2.30
2019-02-25T04:00:35.619Z,2.40
2019-02-25T04:01:35.620Z,1.90
2019-02-25T04:02:35.615Z,2.00
2019-02-25T04:03:35.577Z,1.90
2019-02-25T04:04:35.599Z,2.20
2019-02-25T04:05:35.595Z,2.20
2019-02-25T04:06:35.590Z,2.20
2019-02-25T04:07:35.561Z,2.10
2019-02-25T04:08:35.577Z,1.80
2019-02-25T04:09:35.580Z,2.30
2019-02-25T04:10:35.567Z,1.90
2019-02-25T04:11:35.544Z,2.20
2019-02-25T04:12:35.533Z,2.20
2019-02-25T04:13:35.538Z,1.80
2019-02-25T04:14:35.530Z,2.10
2019-02-25T04:15:35.521Z,2.00
2019-02-25T04:16:35.518Z,1.80
2019-02-25T04:17:35.513Z,1.90
2019-02-25T04:18:35.517Z,1.80
2019-02-25T04:19:35.500Z,1.80
2019-02-25T04:20:35.484Z,1.80
2019-02-25T04:21:35.504Z,2.00
2019-02-25T04:22:35.495Z,1.90
2019-02-25T04:23:35.480Z,1.90
2019-02-25T04:24:35.455Z,2.20
2019-02-25T04:25:35.463Z,1.80
2019-02-25T04:26:35.449Z,2.10
2019-02-25T04:27:35.494Z,1.50
2019-02-25T04:28:35.442Z,1.90
2019-02-25T04:29:35.435Z,2.20
2019-02-25T04:30:35.440Z,2.10
2019-02-25T04:31:35.423Z,1.90
2019-02-25T04:32:35.420Z,2.10
2019-02-25T04:33:35.413Z,1.90
2019-02-25T04:34:35.394Z,2.00
2019-02-25T04:35:35.407Z,1.90
2019-02-25T04:36:35.388Z,1.80
2019-02-25T04:37:35.416Z,1.80
2019-02-25T04:38:35.392Z,1.90
2019-02-25T04:39:35.375Z,2.10
2019-02-25T04:40:35.370Z,1.80
2019-02-25T04:41:35.379Z,1.60
2019-02-25T04:42:35.391Z,2.10
2019-02-25T04:43:35.375Z,1.60
2019-02-25T04:44:35.348Z,1.60
2019-02-25T04:45:35.365Z,1.60
2019-02-25T04:46:35.350Z,1.60
2019-02-25T04:47:35.345Z,1.60
2019-02-25T04:48:35.338Z,1.60
2019-02-25T04:49:35.311Z,1.50
2019-02-25T04:50:35.333Z,1.80
2019-02-25T04:51:35.330Z,1.70
2019-02-25T04:52:35.315Z,1.60
2019-02-25T04:53:35.321Z,1.90
2019-02-25T04:54:35.305Z,1.80
2019-02-25T04:55:35.290Z,1.70
2019-02-25T04:56:35.288Z,1.70
2019-02-25T04:57:35.281Z,1.80
2019-02-25T04:58:35.283Z,1.60
2019-02-25T04:59:35.269Z,1.40
2019-02-25T05:00:35.276Z,1.50
2019-02-25T05:01:35.272Z,1.90
2019-02-25T05:02:35.240Z,1.60
2019-02-25T05:03:35.234Z,1.60
2019-02-25T05:04:35.237Z,1.70
2019-02-25T05:05:35.233Z,1.60
2019-02-25T05:06:35.235Z,1.60
2019-02-25T05:07:35.269Z,1.70
2019-02-25T05:08:35.216Z,1.50
2019-02-25T05:09:35.197Z,1.70
2019-02-25T05:10:35.207Z,1.60
2019-02-25T05:11:35.204Z,1.50
2019-02-25T05:12:35.200Z,1.60
2019-02-25T05:13:35.203Z,1.60
2019-02-25T05:14:35.161Z,1.60
2019-02-25T05:15:35.184Z,1.50
2019-02-25T05:16:35.179Z,1.50
2019-02-25T05:17:35.387Z,1.70
2019-02-25T05:18:35.389Z,1.40
2019-02-25T05:19:35.360Z,1.50
2019-02-25T05:20:35.126Z,1.70
2019-02-25T05:21:35.154Z,1.50
2019-02-25T05:22:37.388Z,1.70
2019-02-25T05:23:35.143Z,1.60
2019-02-25T05:24:35.131Z,1.50
2019-02-25T05:25:35.115Z,1.60
2019-02-25T05:26:35.109Z,1.60
2019-02-25T05:27:35.153Z,1.40
2019-02-25T05:28:35.103Z,1.60
2019-02-25T05:29:35.092Z,1.90
2019-02-25T05:30:35.108Z,1.50
2019-02-25T05:31:35.080Z,1.80
2019-02-25T05:32:35.060Z,1.60
2019-02-25T05:33:35.082Z,1.70
2019-02-25T05:34:35.047Z,1.60
2019-02-25T05:35:35.058Z,1.60
2019-02-25T05:36:35.058Z,1.80
2019-02-25T05:37:35.079Z,1.80
2019-02-25T05:38:35.047Z,1.50
2019-02-25T05:39:35.029Z,1.70
2019-02-25T05:40:35.034Z,1.60
2019-02-25T05:41:35.056Z,1.70
2019-02-25T05:42:35.023Z,1.70
2019-02-25T05:43:35.012Z,1.70
2019-02-25T05:44:35.012Z,1.70
2019-02-25T05:45:35.040Z,1.90
2019-02-25T05:46:34.989Z,1.70
2019-02-25T05:47:34.998Z,1.60
2019-02-25T05:48:34.977Z,1.80
2019-02-25T05:49:34.968Z,1.70
2019-02-25T05:50:34.964Z,1.70
2019-02-25T05:51:34.966Z,1.60
2019-02-25T05:52:34.950Z,1.60
2019-02-25T05:53:34.948Z,1.70
2019-02-25T05:54:34.950Z,1.70
2019-02-25T05:55:34.935Z,2.10
2019-02-25T05:56:34.945Z,1.60
2019-02-25T05:57:34.916Z,1.70
2019-02-25T05:58:34.932Z,1.80
2019-02-25T05:59:34.912Z,1.70
2019-02-25T06:00:34.906Z,1.90
2019-02-25T06:01:34.908Z,1.60
2019-02-25T06:02:34.908Z,2.10
2019-02-25T06:03:34.891Z,1.90
2019-02-25T06:04:34.890Z,1.70
2019-02-25T06:05:34.862Z,1.90
2019-02-25T06:06:34.868Z,1.90
2019-02-25T06:07:34.851Z,1.90
2019-02-25T06:08:34.839Z,2.30
2019-02-25T06:09:34.870Z,1.80
2019-02-25T06:10:34.841Z,2.10
2019-02-25T06:11:34.831Z,2.10
2019-02-25T06:12:34.833Z,2.30
2019-02-25T06:13:34.831Z,2.20
2019-02-25T06:14:34.832Z,2.10
2019-02-25T06:15:34.803Z,2.10
2019-02-25T06:16:34.817Z,2.60
2019-02-25T06:17:34.920Z,1.90
2019-02-25T06:18:34.801Z,2.10
2019-02-25T06:19:34.846Z,2.20
2019-02-25T06:20:34.782Z,2.40
2019-02-25T06:21:34.781Z,2.10
2019-02-25T06:22:34.777Z,2.20
2019-02-25T06:23:34.761Z,2.20
2019-02-25T06:24:34.761Z,2.40
2019-02-25T06:25:34.760Z,2.30
2019-02-25T06:26:34.798Z,2.80
2019-02-25T06:27:34.743Z,2.10
2019-02-25T06:28:34.747Z,2.30
2019-02-25T06:29:34.727Z,2.50
2019-02-25T06:30:34.720Z,2.30
2019-02-25T06:31:34.716Z,2.00
2019-02-25T06:32:34.700Z,1.90
2019-02-25T06:33:34.951Z,2.40
2019-02-25T06:34:34.716Z,2.30
2019-02-25T06:35:34.711Z,2.10
2019-02-25T06:36:34.712Z,2.40
2019-02-25T06:37:34.733Z,2.60
2019-02-25T06:38:34.678Z,2.10
2019-02-25T06:39:34.670Z,2.30
2019-02-25T06:40:34.673Z,2.30
2019-02-25T06:41:34.664Z,2.20
2019-02-25T06:42:34.643Z,2.70
2019-02-25T06:43:34.664Z,2.00
2019-02-25T06:44:34.642Z,2.20
2019-02-25T06:45:34.638Z,2.00
2019-02-25T06:46:34.623Z,1.80
2019-02-25T06:47:34.618Z,2.30
2019-02-25T06:48:34.626Z,1.80
2019-02-25T06:49:34.615Z,1.80
2019-02-25T06:50:34.598Z,1.70
2019-02-25T06:51:34.613Z,2.10
2019-02-25T06:52:34.607Z,2.10
2019-02-25T06:53:34.603Z,1.80
2019-02-25T06:54:34.593Z,1.90
2019-02-25T06:55:34.571Z,1.80
2019-02-25T06:56:34.571Z,1.90
2019-02-25T06:57:35.810Z,2.10
2019-02-25T06:58:34.561Z,1.90
2019-02-25T06:59:34.564Z,1.90
2019-02-25T07:00:34.761Z,2.20
2019-02-25T07:01:34.540Z,1.90
2019-02-25T07:02:35.768Z,1.80
2019-02-25T07:03:34.507Z,1.70
2019-02-25T07:04:34.520Z,1.80
2019-02-25T07:05:34.501Z,1.90
2019-02-25T07:06:34.516Z,1.80
2019-02-25T07:07:34.545Z,1.80
2019-02-25T07:08:34.512Z,1.90
2019-02-25T07:09:34.477Z,1.70
2019-02-25T07:10:34.483Z,2.30
2019-02-25T07:11:34.472Z,2.10
2019-02-25T07:12:34.461Z,1.90
2019-02-25T07:13:34.469Z,2.40
2019-02-25T07:14:34.470Z,1.90
2019-02-25T07:15:34.503Z,2.00
2019-02-25T07:16:34.445Z,1.40
2019-02-25T07:17:34.491Z,1.70
2019-02-25T07:18:34.440Z,1.50
2019-02-25T07:19:34.437Z,1.90
2019-02-25T07:20:34.475Z,1.80
2019-02-25T07:21:34.431Z,1.70
2019-02-25T07:22:34.427Z,1.50
2019-02-25T07:23:34.426Z,1.50
2019-02-25T07:24:34.418Z,1.70
2019-02-25T07:25:34.418Z,1.40
2019-02-25T07:26:34.396Z,1.60
2019-02-25T07:27:34.429Z,1.50
2019-02-25T07:28:34.378Z,1.60
2019-02-25T07:29:34.372Z,1.50
2019-02-25T07:30:34.363Z,1.50
2019-02-25T07:31:34.399Z,1.50
2019-02-25T07:32:34.371Z,1.60
2019-02-25T07:33:34.349Z,1.80
2019-02-25T07:34:34.350Z,1.60
2019-02-25T07:35:34.326Z,1.30
2019-02-25T07:36:34.334Z,1.60
2019-02-25T07:37:34.330Z,1.70
2019-02-25T07:38:39.450Z,1.60
2019-02-25T07:39:34.325Z,1.60
2019-02-25T07:40:34.325Z,1.70
2019-02-25T07:41:34.314Z,1.80
2019-02-25T07:42:34.438Z,1.60
2019-02-25T07:43:34.298Z,1.80
2019-02-25T07:44:34.293Z,1.90
2019-02-25T07:45:34.286Z,1.50
2019-02-25T07:46:34.268Z,1.50
2019-02-25T07:47:34.264Z,1.60
2019-02-25T07:48:34.263Z,1.70
2019-02-25T07:49:34.267Z,1.60
2019-02-25T07:50:34.260Z,1.80
2019-02-25T07:51:34.256Z,1.80
2019-02-25T07:52:34.252Z,1.90
2019-02-25T07:53:34.256Z,1.80
2019-02-25T07:54:34.223Z,1.50
2019-02-25T07:55:34.239Z,1.90
2019-02-25T07:56:34.260Z,2.10
2019-02-25T07:57:34.258Z,2.00
2019-02-25T07:58:34.250Z,1.50
2019-02-25T07:59:34.214Z,1.60
2019-02-25T08:00:34.195Z,1.60
2019-02-25T08:01:34.178Z,1.60
2019-02-25T08:02:34.228Z,2.10
2019-02-25T08:03:34.191Z,1.60
2019-02-25T08:04:34.169Z,1.70
2019-02-25T08:05:34.182Z,1.40
2019-02-25T08:06:34.181Z,1.70
2019-02-25T08:07:34.142Z,1.70
2019-02-25T08:08:34.151Z,1.70
2019-02-25T08:09:34.143Z,1.70
2019-02-25T08:10:34.143Z,1.70
2019-02-25T08:11:34.154Z,1.70
2019-02-25T08:12:34.139Z,1.40
2019-02-25T08:13:34.272Z,1.60
2019-02-25T08:14:34.118Z,1.60
2019-02-25T08:15:34.116Z,1.50
2019-02-25T08:16:34.117Z,1.50
2019-02-25T08:17:34.104Z,1.60
2019-02-25T08:18:34.107Z,1.70
2019-02-25T08:19:34.077Z,1.60
2019-02-25T08:20:34.087Z,1.60
2019-02-25T08:21:34.071Z,1.70
2019-02-25T08:22:34.069Z,1.70
2019-02-25T08:23:34.059Z,1.60
2019-02-25T08:24:34.068Z,1.50
2019-02-25T08:25:34.032Z,1.70
2019-02-25T08:26:34.032Z,1.90
2019-02-25T08:27:34.042Z,1.60
2019-02-25T08:28:34.074Z,2.30
2019-02-25T08:29:34.010Z,2.00
2019-02-25T08:30:34.017Z,1.90
2019-02-25T08:31:34.013Z,1.70
2019-02-25T08:32:34.004Z,1.80
2019-02-25T08:33:33.998Z,2.20
2019-02-25T08:34:34.021Z,1.70
2019-02-25T08:35:33.998Z,1.80
2019-02-25T08:36:34.021Z,2.30
2019-02-25T08:37:33.985Z,1.90
2019-02-25T08:38:33.987Z,2.00
2019-02-25T08:39:33.973Z,1.70
2019-02-25T08:40:33.973Z,1.90
2019-02-25T08:41:33.963Z,2.20
2019-02-25T08:42:33.952Z,2.10
2019-02-25T08:43:33.949Z,2.00
2019-02-25T08:44:33.935Z,2.10
2019-02-25T08:45:33.928Z,1.80
2019-02-25T08:46:33.921Z,2.30
2019-02-25T08:47:33.910Z,1.90
2019-02-25T08:48:33.928Z,1.90
2019-02-25T08:49:33.915Z,2.20
2019-02-25T08:50:33.892Z,1.70
2019-02-25T08:51:33.921Z,2.10
2019-02-25T08:52:33.906Z,2.20
2019-02-25T08:53:33.878Z,2.30
2019-02-25T08:54:33.891Z,2.30
2019-02-25T08:55:33.878Z,2.20
2019-02-25T08:56:33.882Z,2.10
2019-02-25T08:57:33.866Z,2.40
2019-02-25T08:58:33.849Z,1.90
2019-02-25T08:59:33.856Z,2.40
2019-02-25T09:00:33.854Z,2.00
2019-02-25T09:01:33.832Z,2.30
2019-02-25T09:02:33.854Z,2.60
2019-02-25T09:03:33.839Z,2.60
2019-02-25T09:04:33.847Z,2.50
2019-02-25T09:05:33.828Z,2.30
2019-02-25T09:06:33.834Z,2.50
2019-02-25T09:07:33.832Z,2.40
2019-02-25T09:08:33.823Z,2.20
2019-02-25T09:09:33.809Z,2.40
2019-02-25T09:10:33.782Z,2.40
2019-02-25T09:11:33.781Z,2.20
2019-02-25T09:12:33.804Z,2.30
2019-02-25T09:13:33.789Z,2.40
2019-02-25T09:14:33.812Z,2.20
2019-02-25T09:15:33.757Z,2.50
2019-02-25T09:16:33.773Z,2.80
2019-02-25T09:17:33.767Z,2.40
2019-02-25T09:18:33.736Z,1.90
2019-02-25T09:19:33.745Z,2.10
2019-02-25T09:20:33.746Z,2.00
2019-02-25T09:21:33.745Z,1.90
2019-02-25T09:22:33.733Z,1.70
2019-02-25T09:23:33.721Z,2.40
2019-02-25T09:24:33.726Z,2.10
2019-02-25T09:25:33.699Z,2.00
2019-02-25T09:26:33.751Z,2.00
2019-02-25T09:27:33.704Z,1.80
2019-02-25T09:28:33.690Z,1.70
2019-02-25T09:29:33.695Z,1.90
2019-02-25T09:30:33.695Z,2.00
2019-02-25T09:31:33.688Z,2.00
2019-02-25T09:32:33.681Z,2.10
2019-02-25T09:33:33.667Z,1.90
2019-02-25T09:34:33.654Z,2.00
2019-02-25T09:35:33.658Z,1.90
2019-02-25T09:36:33.641Z,2.20
2019-02-25T09:37:33.651Z,2.00
2019-02-25T09:38:33.638Z,2.20
2019-02-25T09:39:33.630Z,2.20
2019-02-25T09:40:33.659Z,1.90
2019-02-25T09:41:33.602Z,2.10
2019-02-25T09:42:33.611Z,2.20
2019-02-25T09:43:33.608Z,1.80
2019-02-25T09:44:33.609Z,1.80
2019-02-25T09:45:33.599Z,2.40
2019-02-25T09:46:33.637Z,2.20
2019-02-25T09:47:33.592Z,2.10
2019-02-25T09:48:33.619Z,2.20
2019-02-25T09:49:33.619Z,2.30
2019-02-25T09:50:33.566Z,2.10
2019-02-25T09:51:33.575Z,2.00
2019-02-25T09:52:33.548Z,2.10
2019-02-25T09:53:33.537Z,2.30
2019-02-25T09:54:33.586Z,2.20
2019-02-25T09:55:33.536Z,2.10
2019-02-25T09:56:33.538Z,2.10
2019-02-25T09:57:33.518Z,2.10
2019-02-25T09:58:33.534Z,2.00
2019-02-25T09:59:33.513Z,2.00
2019-02-25T10:00:33.557Z,2.20
2019-02-25T10:01:33.496Z,2.10
2019-02-25T10:02:33.477Z,2.40
2019-02-25T10:03:33.505Z,2.10
2019-02-25T10:04:33.527Z,2.00
2019-02-25T10:05:33.473Z,2.10
2019-02-25T10:06:33.469Z,2.30
2019-02-25T10:07:33.477Z,2.20
2019-02-25T10:08:33.514Z,2.50
2019-02-25T10:09:33.461Z,2.50
2019-02-25T10:10:33.458Z,2.40
2019-02-25T10:11:33.494Z,2.30
2019-02-25T10:12:33.431Z,2.20
2019-02-25T10:13:33.444Z,2.30
2019-02-25T10:14:33.418Z,2.70
2019-02-25T10:15:33.420Z,2.60
2019-02-25T10:16:33.430Z,2.60
2019-02-25T10:17:33.404Z,2.60
2019-02-25T10:18:33.409Z,3.00
2019-02-25T10:19:34.777Z,2.70
2019-02-25T10:20:33.398Z,2.40
2019-02-25T10:21:33.381Z,2.70
2019-02-25T10:22:33.362Z,2.10
2019-02-25T10:23:33.357Z,2.20
2019-02-25T10:24:33.394Z,2.60
2019-02-25T10:25:33.352Z,2.60
2019-02-25T10:26:33.365Z,2.60
2019-02-25T10:27:33.352Z,2.70
2019-02-25T10:28:33.341Z,2.80
2019-02-25T10:29:33.398Z,3.30
2019-02-25T10:30:33.350Z,3.30
2019-02-25T10:31:33.336Z,2.90
2019-02-25T10:32:33.333Z,3.30
2019-02-25T10:33:33.366Z,2.90
2019-02-25T10:34:33.322Z,2.70
2019-02-25T10:35:33.313Z,2.70
2019-02-25T10:36:33.316Z,2.50
2019-02-25T10:37:34.281Z,2.20
2019-02-25T10:38:33.289Z,2.80
2019-02-25T10:39:33.292Z,2.70
2019-02-25T10:40:33.259Z,2.90
2019-02-25T10:41:33.257Z,3.00
2019-02-25T10:42:33.469Z,2.70
2019-02-25T10:43:34.562Z,2.80
2019-02-25T10:44:34.057Z,1.90
2019-02-25T10:45:35.197Z,2.40
2019-02-25T10:46:33.242Z,2.60
2019-02-25T10:47:33.248Z,2.30
2019-02-25T10:48:33.220Z,2.30
2019-02-25T10:49:33.711Z,2.20
2019-02-25T10:50:33.473Z,2.50
2019-02-25T10:51:34.707Z,2.60
2019-02-25T10:52:33.225Z,2.10
2019-02-25T10:53:33.206Z,2.00
2019-02-25T10:54:33.207Z,2.10
2019-02-25T10:55:33.203Z,2.40
2019-02-25T10:56:33.226Z,1.90
2019-02-25T10:57:33.163Z,2.30
2019-02-25T10:58:33.643Z,1.70
2019-02-25T10:59:34.521Z,2.00
2019-02-25T11:00:33.176Z,2.10
2019-02-25T11:01:33.168Z,2.50
2019-02-25T11:02:33.169Z,2.00
2019-02-25T11:03:33.154Z,2.20
2019-02-25T11:04:33.135Z,2.10
2019-02-25T11:05:33.155Z,2.00
2019-02-25T11:06:35.511Z,1.90
2019-02-25T11:07:34.762Z,1.60
2019-02-25T11:08:33.140Z,2.30
2019-02-25T11:09:33.127Z,2.00
2019-02-25T11:10:33.113Z,1.80
2019-02-25T11:11:33.093Z,2.10
2019-02-25T11:12:33.102Z,2.20
2019-02-25T11:13:34.607Z,2.10
2019-02-25T11:14:33.877Z,2.10
2019-02-25T11:15:33.087Z,2.10
2019-02-25T11:16:33.094Z,2.30
2019-02-25T11:17:33.124Z,2.00
2019-02-25T11:18:33.090Z,2.50
2019-02-25T11:19:33.076Z,2.20
2019-02-25T11:20:33.397Z,2.40
2019-02-25T11:21:34.955Z,2.80
2019-02-25T11:22:33.074Z,2.40
2019-02-25T11:23:33.061Z,2.20
2019-02-25T11:24:33.062Z,3.00
2019-02-25T11:25:33.084Z,2.70
2019-02-25T11:26:35.198Z,2.30
2019-02-25T11:27:33.607Z,2.10
2019-02-25T11:28:34.336Z,2.40
2019-02-25T11:29:33.051Z,2.50
2019-02-25T11:30:33.037Z,2.20
2019-02-25T11:31:33.015Z,2.10
2019-02-25T11:32:33.042Z,2.30
2019-02-25T11:33:34.297Z,2.20
2019-02-25T11:34:33.674Z,2.30
2019-02-25T11:35:34.181Z,2.30
2019-02-25T11:36:33.002Z,2.60
2019-02-25T11:37:32.994Z,2.40
2019-02-25T11:38:34.849Z,2.60
2019-02-25T11:39:34.692Z,2.20
2019-02-25T11:40:34.129Z,2.20
2019-02-25T11:41:34.350Z,2.30
2019-02-25T11:42:32.958Z,2.30
2019-02-25T11:43:32.962Z,2.50
2019-02-25T11:44:32.966Z,2.80
2019-02-25T11:45:32.954Z,2.30
2019-02-25T11:46:32.936Z,2.00
2019-02-25T11:47:32.987Z,2.40
2019-02-25T11:48:32.939Z,2.50
2019-02-25T11:49:32.932Z,3.30
2019-02-25T11:50:32.928Z,2.50
2019-02-25T11:51:32.924Z,2.30
2019-02-25T11:52:32.936Z,2.70
2019-02-25T11:53:32.913Z,2.50
2019-02-25T11:54:32.961Z,2.70
2019-02-25T11:55:32.960Z,2.90
2019-02-25T11:56:32.892Z,2.40
2019-02-25T11:57:32.903Z,2.30
2019-02-25T11:58:32.898Z,2.60
2019-02-25T11:59:33.080Z,2.70
2019-02-25T12:00:32.895Z,2.30
2019-02-25T12:01:32.879Z,2.70
2019-02-25T12:02:32.889Z,2.40
2019-02-25T12:03:32.873Z,2.40
2019-02-25T12:04:32.870Z,2.80
2019-02-25T12:05:32.852Z,2.10
2019-02-25T12:06:32.851Z,2.20
2019-02-25T12:07:32.905Z,2.30
2019-02-25T12:08:32.840Z,2.40
2019-02-25T12:09:32.847Z,2.30
2019-02-25T12:10:32.893Z,2.40
2019-02-25T12:11:32.842Z,2.20
2019-02-25T12:12:32.835Z,2.60
2019-02-25T12:13:32.839Z,2.10
2019-02-25T12:14:32.820Z,2.00
2019-02-25T12:15:32.830Z,2.20
2019-02-25T12:16:32.829Z,2.10
2019-02-25T12:17:32.828Z,1.90
2019-02-25T12:18:32.819Z,2.40
2019-02-25T12:19:32.815Z,2.00
2019-02-25T12:20:32.809Z,1.70
2019-02-25T12:21:32.792Z,2.00
2019-02-25T12:22:32.787Z,2.00
2019-02-25T12:23:32.839Z,2.20
2019-02-25T12:24:32.786Z,2.00
2019-02-25T12:25:32.777Z,2.10
2019-02-25T12:26:32.795Z,2.00
2019-02-25T12:27:32.789Z,2.20
2019-02-25T12:28:32.787Z,2.10
2019-02-25T12:29:32.838Z,2.20
2019-02-25T12:30:32.770Z,2.20
2019-02-25T12:31:32.776Z,2.40
2019-02-25T12:32:32.753Z,1.90
2019-02-25T12:33:32.762Z,2.00
2019-02-25T12:34:32.754Z,1.90
2019-02-25T12:35:32.742Z,2.10
2019-02-25T12:36:32.743Z,1.90
2019-02-25T12:37:32.733Z,1.70
2019-02-25T12:38:32.738Z,1.90
2019-02-25T12:39:32.788Z,1.70
2019-02-25T12:40:32.733Z,1.70
2019-02-25T12:41:32.735Z,1.50
2019-02-25T12:42:32.737Z,1.90
2019-02-25T12:43:32.712Z,1.30
2019-02-25T12:44:32.731Z,1.50
2019-02-25T12:45:32.725Z,1.70
2019-02-25T12:46:32.734Z,1.80
2019-02-25T12:47:32.699Z,1.30
2019-02-25T12:48:32.695Z,1.50
2019-02-25T12:49:32.711Z,1.40
2019-02-25T12:50:32.710Z,1.80
2019-02-25T12:51:32.695Z,1.40
2019-02-25T12:52:32.685Z,1.60
2019-02-25T12:53:32.704Z,1.50
2019-02-25T12:54:32.684Z,1.70
2019-02-25T12:55:32.692Z,1.70
2019-02-25T12:56:32.687Z,1.80
2019-02-25T12:57:32.699Z,1.80
2019-02-25T12:58:32.688Z,1.60
2019-02-25T12:59:32.684Z,2.00
2019-02-25T13:00:32.657Z,2.10
2019-02-25T13:01:32.692Z,1.90
2019-02-25T13:02:32.661Z,2.20
2019-02-25T13:03:32.687Z,1.90
2019-02-25T13:04:32.671Z,2.00
2019-02-25T13:05:32.647Z,1.80
2019-02-25T13:06:32.677Z,1.80
2019-02-25T13:07:32.665Z,1.50
2019-02-25T13:08:32.660Z,1.60
2019-02-25T13:09:32.643Z,1.50
2019-02-25T13:10:32.658Z,1.60
2019-02-25T13:11:32.659Z,1.70
2019-02-25T13:12:32.643Z,2.00
2019-02-25T13:13:32.697Z,1.60
2019-02-25T13:14:32.655Z,1.70
2019-02-25T13:15:32.641Z,1.90
2019-02-25T13:16:32.775Z,1.80
2019-02-25T13:17:32.631Z,1.90
2019-02-25T13:18:32.643Z,1.90